Horley, United Kingdom
Current Conditions -  °F | °C
As of 1:20 PM on Tuesday 21 Oct 2014 (Local Time) from EGKK Reporting Station
Scattered Clouds Scattered Clouds  
Wind Chill: 55°   Ceiling: Unl
Heat Index: 55°   Visibility: 6mi
Dew Point: 39°   Wind: 22mph
Humidity: 54%   Direction: 280°W
Pressure: 29.74"   Gusts: 41mph
Location:  51.17°N, 0.18°W
Report Text: EGKK 211220Z 28019G36KT 9999 SCT040 13/04 Q1007
Loading
Personal Weather Stations






























Interactive Weather Map
Tropical Storm Tracking
New forecast layout! Learn more

10-Day Weather Forecast

Advertisements
Track Severe Weather on mobile